Back to Top

Current Local METAR Station Weather Reports...

Local METAR Reports

Local METAR Reports

 

EGNJ - Humberside, United Kingdom
Distance from station: ESE 12mi, 20km
Updated: Sun, 05-Jul-2020 10:50pm BST
Mostly Cloudy
Mostly Cloudy
 Wind from SW
Wind: SW 21 mph , 33 km/h
Temperature: 13°C
Dew Point: 9°C
Humidity: 77%
Barometer: 1007 hPa
Clouds: Mostly Cloudy
Visibility: 6 miles , 10 km
Cloud details: Mostly Cloudy 945 m
2020/07/05 21:50 EGNJ 052150Z AUTO 23018KT 9999 BKN031/// 13/09 Q1007
EGXV - Leconfield (aut), United Kingdom
Distance from station: NNE 16mi, 26km
Updated: Sun, 05-Jul-2020 10:50pm BST
Rain, Mostly cloudy
Rain, Mostly cloudy
 Wind from WSW
Wind: WSW 15 mph , 24 km/h
Temperature: 12°C
Dew Point: 10°C
Humidity: 88%
Barometer: 1005 hPa
Summary: Rain
Clouds: Mostly Cloudy
Visibility: 6 miles , 9 km
Cloud details: Few Clouds 975 m
Mostly Cloudy 1524 m
2020/07/05 21:50 EGXV 052150Z AUTO 25013KT 9000 RA FEW032/// BKN050/// 12/10 Q1005
 
EGCN - Doncaster Sheffi, United Kingdom
Distance from station: SW 20mi, 32km
Updated: Sun, 05-Jul-2020 10:50pm BST
Partly Cloudy
Partly Cloudy
 Wind from WSW
Wind: WSW 15 mph , 24 km/h
Temperature: 13°C
Dew Point: 9°C
Humidity: 77%
Barometer: 1009 hPa
Clouds: Partly Cloudy
Visibility: 6 miles , 10 km
Cloud details: Few Clouds 823 m
Partly Cloudy 1036 m
2020/07/05 21:50 EGCN 052150Z 24013KT 230V290 9999 FEW027 SCT034 13/09 Q1009 RERA
EGXP - Scampton Raf, United Kingdom
Distance from station: S 25mi, 39km
Updated: Sun, 05-Jul-2020 10:50pm BST
Partly Cloudy
Partly Cloudy
 Wind from W
Wind: W 20 mph , 31 km/h
Temperature: 12°C
Dew Point: 8°C
Humidity: 77%
Barometer: 1008 hPa
Clouds: Partly Cloudy
Visibility: 6 miles , 10 km
Cloud details: Partly Cloudy 1372 m
2020/07/05 21:50 EGXP 052150Z AUTO 26017KT 9999 // SCT045/// 12/08 Q1008
 
EGXW - Waddington Raf, United Kingdom
Distance from station: S 33mi, 53km
Updated: Sun, 05-Jul-2020 10:50pm BST
Partly Cloudy
Partly Cloudy
 Wind from WSW
Wind: WSW 12 mph , 19 km/h
Temperature: 13°C
Dew Point: 9°C
Humidity: 77%
Barometer: 1008 hPa
Clouds: Partly Cloudy
Visibility: 6 miles , 10 km
Cloud details: Partly Cloudy 1006 m
Partly Cloudy 1829 m
2020/07/05 21:50 EGXW 052150Z AUTO 25010KT 9999 SCT033/// SCT060/// 13/09 Q1008 RERA
EGXS - Donna Nook Raf, United Kingdom
Distance from station: ESE 33mi, 54km
Updated: Sun, 05-Jul-2020 10:50pm BST
Few Clouds
Few Clouds
 Wind from SW
Wind: SW 21 mph , 33 km/h
Temperature: 13°C
Dew Point: 8°C
Humidity: 72%
Barometer: 1006 hPa
Clouds: Few Clouds
Visibility: 6 miles , 10 km
Cloud details: Few Clouds 1524 m
2020/07/05 21:50 EGXS 052150Z AUTO 23018KT 9999 // FEW050/// 13/08 Q1006
 
EGXU - Linton-On-Ouse R, United Kingdom
Distance from station: NW 38mi, 61km
Updated: Sun, 05-Jul-2020 10:50pm BST
Partly Cloudy
Partly Cloudy
 Wind from W
Wind: W 15 mph , 24 km/h, Gust: 26 mph , 43 km/h
Temperature: 12°C
Dew Point: 9°C
Humidity: 82%
Barometer: 1006 hPa
Clouds: Partly Cloudy
Visibility: 6 miles , 10 km
Cloud details: Partly Cloudy 1829 m
2020/07/05 21:50 EGXU 052150Z AUTO 27013G23KT 9999 SCT060/// 12/09 Q1006
EGXC - Coningsby Raf, United Kingdom
Distance from station: SSE 42mi, 68km
Updated: Sun, 05-Jul-2020 10:50pm BST
Mostly Cloudy
Mostly Cloudy
 Wind from W
Wind: W 17 mph , 28 km/h
Temperature: 14°C
Dew Point: 9°C
Humidity: 72%
Barometer: 1008 hPa
Clouds: Mostly Cloudy
Visibility: 6 miles , 10 km
Cloud details: Few Clouds 1067 m
Mostly Cloudy 1524 m
2020/07/05 21:50 EGXC 052150Z 27015KT 9999 FEW035 BKN050 14/09 Q1008 RMK BLU
 
EGYD - Cranwell Raf, United Kingdom
Distance from station: S 43mi, 69km
Updated: Sun, 05-Jul-2020 10:50pm BST
Mostly Cloudy
Mostly Cloudy
 Wind from W
Wind: W 29 mph , 46 km/h
Temperature: 14°C
Dew Point: 8°C
Humidity: 67%
Barometer: 1009 hPa
Clouds: Mostly Cloudy
Visibility: 6 miles , 10 km
Cloud details: Few Clouds 1036 m
Mostly Cloudy 1524 m
2020/07/05 21:50 EGYD 052150Z AUTO 26025KT 9999 // FEW034/// BKN050/// 14/08 Q1009
EGNM - Leeds And Bradfo, United Kingdom
Distance from station: WNW 44mi, 71km
Updated: Sun, 05-Jul-2020 10:50pm BST
Light rain, Showers, Partly cloudy
Light rain, Showers, Partly cloudy
 Wind from WSW
Wind: WSW 16 mph , 26 km/h
Temperature: 11°C
Dew Point: 10°C
Humidity: 94%
Barometer: 1007 hPa
Summary: Light rain, Showers
Clouds: Partly Cloudy
Visibility: 5 miles , 8 km
Cloud details: Few Clouds 183 m
Partly Cloudy 762 m
2020/07/05 21:50 EGNM 052150Z 25014KT 8000 -SHRA FEW006 SCT025 11/10 Q1007
 
EGXZ - Topcliffe Raf, United Kingdom
Distance from station: NW 49mi, 79km
Updated: Sun, 05-Jul-2020 10:50pm BST
Partly Cloudy
Partly Cloudy
 Wind from W
Wind: W 10 mph , 17 km/h
Temperature: 12°C
Dew Point: 8°C
Humidity: 77%
Barometer: 1006 hPa
Clouds: Partly Cloudy
Visibility: 6 miles , 10 km
Cloud details: Partly Cloudy 1829 m
2020/07/05 21:50 EGXZ 052150Z AUTO 27009KT 9999 SCT060/// 12/08 Q1006
EGXE - Leeming Raf, United Kingdom
Distance from station: NW 57mi, 92km
Updated: Sun, 05-Jul-2020 10:50pm BST
Partly Cloudy
Partly Cloudy
 Wind from W
Wind: W 8 mph , 13 km/h
Temperature: 11°C
Dew Point: 8°C
Humidity: 82%
Barometer: 1005 hPa
Clouds: Partly Cloudy
Visibility: 6 miles , 10 km
Cloud details: Partly Cloudy 1524 m
2020/07/05 21:50 EGXE 052150Z AUTO 28007KT 9999 SCT050/// 11/08 Q1005
 
EGYH - Holbeach (aut), United Kingdom
Distance from station: SSE 63mi, 101km
Updated: Thu, 02-Jul-2020 1:50pm BST
NOT Current
Mostly Cloudy
Mostly Cloudy
 Wind from N
Wind: N 17 mph , 28 km/h
Temperature: 16°C
Dew Point: 12°C
Humidity: 77%
Barometer: 1011 hPa
Clouds: Mostly Cloudy
Visibility: 6 miles , 10 km
Cloud details: Mostly Cloudy 244 m
2020/07/02 12:50 EGYH 021250Z 36015KT 9999 BKN008 16/12 Q1011 RMK GRN
EGNX - East Midlands, United Kingdom
Distance from station: SSW 65mi, 104km
Updated: Sun, 05-Jul-2020 10:50pm BST
Partly Cloudy
Partly Cloudy
 Wind from SW
Wind: SW 23 mph , 37 km/h, Gust: 35 mph , 56 km/h
Temperature: 13°C
Dew Point: 8°C
Humidity: 72%
Barometer: 1010 hPa
Clouds: Partly Cloudy
Visibility: 6 miles , 10 km
Cloud details: Few Clouds 823 m
Partly Cloudy 1494 m
2020/07/05 21:50 EGNX 052150Z 23020G30KT 9999 FEW027 SCT049 13/08 Q1010
 
EGNV - Tees-Side, United Kingdom
Distance from station: NNW 68mi, 109km
Updated: Sun, 05-Jul-2020 9:50pm BST
NOT Current
Few Clouds
Few Clouds
 Wind from WSW
Wind: WSW 14 mph , 22 km/h
Temperature: 11°C
Dew Point: 8°C
Humidity: 82%
Barometer: 1004 hPa
Clouds: Few Clouds
Visibility: 6 miles , 10 km
Cloud details: Few Clouds 1219 m
2020/07/05 20:50 EGNV 052050Z 25012KT 230V290 9999 FEW040 11/08 Q1004
EGCC - Manchester Intl, United Kingdom
Distance from station: WSW 71mi, 114km
Updated: Sun, 05-Jul-2020 10:50pm BST
Light rain, Thunderstorm
Light rain, Thunderstorm
 Wind from W
Wind: W 20 mph , 31 km/h
Temperature: 13°C
Dew Point: 9°C
Humidity: 77%
Barometer: 1010 hPa
Summary: Light Rain
Clouds: Thunderstorm
Visibility: 6 miles , 10 km
Cloud details: Mostly Cloudy 732 m
2020/07/05 21:50 EGCC 052150Z AUTO 26017KT 9999 -RA BKN024/// //////CB 13/09 Q1010

Metar display script from Saratoga-Weather.org

Data updates at regular intervals.